createdAt,value
2022-08-21T00:00:18.757Z,1812
2022-08-21T00:01:18.577Z,1801
2022-08-21T00:02:18.596Z,1574
2022-08-21T00:03:18.587Z,1808
2022-08-21T00:05:18.774Z,1801
2022-08-21T00:06:18.583Z,1789
2022-08-21T00:07:18.561Z,1552
2022-08-21T00:08:18.579Z,1801
2022-08-21T00:10:18.759Z,1546
2022-08-21T00:11:18.589Z,1838
2022-08-21T00:12:18.550Z,1812
2022-08-21T00:13:18.781Z,1838
2022-08-21T00:15:18.763Z,1566
2022-08-21T00:16:18.605Z,1819
2022-08-21T00:17:18.554Z,1819
2022-08-21T00:18:18.552Z,1552
2022-08-21T00:20:18.779Z,1743
2022-08-21T00:21:18.593Z,1558
2022-08-21T00:22:18.599Z,1768
2022-08-21T00:23:18.609Z,1819
2022-08-21T00:25:19.813Z,1812
2022-08-21T00:26:18.596Z,1830
2022-08-21T00:27:18.561Z,1858
2022-08-21T00:28:18.564Z,1566
2022-08-21T00:30:23.196Z,1557
2022-08-21T00:31:18.592Z,1825
2022-08-21T00:32:18.596Z,1825
2022-08-21T00:33:18.565Z,1825
2022-08-21T00:35:18.762Z,1777
2022-08-21T00:36:18.575Z,1979
2022-08-21T00:37:18.589Z,1933
2022-08-21T00:38:18.601Z,1950
2022-08-21T00:40:18.819Z,1927
2022-08-21T00:41:35.292Z,1666
2022-08-21T00:42:18.598Z,1952
2022-08-21T00:43:18.599Z,1959
2022-08-21T00:45:18.797Z,1549
2022-08-21T00:46:18.590Z,1683
2022-08-21T00:47:18.601Z,1683
2022-08-21T00:48:18.605Z,1977
2022-08-21T00:50:19.666Z,1554
2022-08-21T00:51:18.604Z,1851
2022-08-21T00:52:18.613Z,1921
2022-08-21T00:53:18.602Z,1911
2022-08-21T00:55:18.802Z,1665
2022-08-21T00:56:18.608Z,2114
2022-08-21T00:57:18.615Z,1728
2022-08-21T00:58:18.720Z,1991
2022-08-21T01:00:18.801Z,1854
2022-08-21T01:01:18.623Z,1924
2022-08-21T01:02:18.618Z,1654
2022-08-21T01:03:18.610Z,1646
2022-08-21T01:05:18.788Z,1654
2022-08-21T01:06:18.598Z,1936
2022-08-21T01:07:18.614Z,1959
2022-08-21T01:08:18.592Z,1654
2022-08-21T01:10:21.601Z,1740
2022-08-21T01:11:18.586Z,2056
2022-08-21T01:12:18.601Z,1756
2022-08-21T01:13:18.612Z,1977
2022-08-21T01:15:18.805Z,1714
2022-08-21T01:16:18.582Z,1777
2022-08-21T01:17:18.602Z,1697
2022-08-21T01:18:18.617Z,1979
2022-08-21T01:20:18.795Z,1766
2022-08-21T01:21:18.615Z,2084
2022-08-21T01:22:18.623Z,1580
2022-08-21T01:23:18.620Z,2008
2022-08-21T01:25:18.795Z,1768
2022-08-21T01:26:18.590Z,1745
2022-08-21T01:27:18.598Z,2029
2022-08-21T01:28:18.631Z,1745
2022-08-21T01:30:18.803Z,2098
2022-08-21T01:31:18.618Z,1731
2022-08-21T01:32:18.627Z,2026
2022-08-21T01:33:18.629Z,1731
2022-08-21T01:35:18.831Z,2017
2022-08-21T01:36:18.626Z,1972
2022-08-21T01:37:18.630Z,1697
2022-08-21T01:38:18.649Z,1867
2022-08-21T01:39:18.658Z,2012
2022-08-21T01:40:18.896Z,1959
2022-08-21T01:41:18.635Z,1748
2022-08-21T01:42:18.629Z,1731
2022-08-21T01:43:18.636Z,1748
2022-08-21T01:45:18.803Z,2035
2022-08-21T01:46:18.634Z,1937
2022-08-21T01:47:18.628Z,1812
2022-08-21T01:48:18.640Z,1652
2022-08-21T01:50:18.830Z,1880
2022-08-21T01:51:18.617Z,2005
2022-08-21T01:52:18.639Z,1766
2022-08-21T01:53:18.609Z,1902
2022-08-21T01:55:18.836Z,1947
2022-08-21T01:56:18.637Z,2026
2022-08-21T01:57:18.635Z,2017
2022-08-21T01:58:18.629Z,1716
2022-08-21T02:00:18.811Z,1756
2022-08-21T02:01:18.728Z,1649
2022-08-21T02:02:18.636Z,1751
2022-08-21T02:03:19.936Z,1669
2022-08-21T02:05:18.846Z,1679
2022-08-21T02:06:18.936Z,1985
2022-08-21T02:07:18.621Z,1719
2022-08-21T02:08:18.613Z,1845
2022-08-21T02:09:18.661Z,1771
2022-08-21T02:10:18.848Z,1557
2022-08-21T02:11:18.651Z,1740
2022-08-21T02:12:18.652Z,1974
2022-08-21T02:13:18.654Z,1748
2022-08-21T02:14:27.225Z,1696
2022-08-21T02:15:18.815Z,1803
2022-08-21T02:16:19.289Z,1782
2022-08-21T02:17:18.655Z,1520
2022-08-21T02:18:18.651Z,1722
2022-08-21T02:20:18.849Z,1711
2022-08-21T02:21:18.681Z,1697
2022-08-21T02:22:18.673Z,1988
2022-08-21T02:23:18.643Z,1956
2022-08-21T02:24:18.659Z,1994
2022-08-21T02:25:18.823Z,1716
2022-08-21T02:26:18.677Z,1956
2022-08-21T02:27:18.659Z,2005
2022-08-21T02:28:18.660Z,1994
2022-08-21T02:30:18.827Z,1972
2022-08-21T02:31:18.651Z,2017
2022-08-21T02:32:18.655Z,1994
2022-08-21T02:33:18.626Z,2072
2022-08-21T02:35:18.846Z,1743
2022-08-21T02:36:18.624Z,1711
2022-08-21T02:37:18.651Z,2026
2022-08-21T02:38:18.660Z,2032
2022-08-21T02:40:18.925Z,2032
2022-08-21T02:41:18.680Z,2015
2022-08-21T02:42:18.667Z,1974
2022-08-21T02:43:18.664Z,2020
2022-08-21T02:45:18.853Z,2015
2022-08-21T02:46:18.630Z,2015
2022-08-21T02:47:18.669Z,1733
2022-08-21T02:48:18.636Z,1905
2022-08-21T02:50:18.871Z,2005
2022-08-21T02:51:18.671Z,1701
2022-08-21T02:52:18.670Z,1707
2022-08-21T02:53:18.671Z,2015
2022-08-21T02:54:18.667Z,2015
2022-08-21T02:55:18.847Z,1733
2022-08-21T02:56:18.635Z,2084
2022-08-21T02:57:18.707Z,2094
2022-08-21T02:58:18.665Z,1786
2022-08-21T03:00:18.865Z,1786
2022-08-21T03:01:18.693Z,1827
2022-08-21T03:02:18.683Z,1777
2022-08-21T03:03:18.685Z,1931
2022-08-21T03:04:18.664Z,2146
2022-08-21T03:05:18.878Z,2132
2022-08-21T03:06:18.666Z,1761
2022-08-21T03:07:18.677Z,1731
2022-08-21T03:08:18.667Z,2058
2022-08-21T03:09:18.679Z,2066
2022-08-21T03:10:18.854Z,2084
2022-08-21T03:12:32.695Z,646
2022-08-21T03:13:32.650Z,517
2022-08-21T03:14:32.671Z,626
2022-08-21T03:16:35.015Z,470
2022-08-21T03:17:32.643Z,457
2022-08-21T03:18:32.677Z,618
2022-08-21T03:19:32.638Z,629
2022-08-21T03:21:32.868Z,463
2022-08-21T03:22:32.677Z,683
2022-08-21T03:23:32.894Z,572
2022-08-21T03:24:32.676Z,493
2022-08-21T03:26:32.865Z,683
2022-08-21T03:27:32.717Z,657
2022-08-21T03:28:32.661Z,477
2022-08-21T03:29:32.670Z,602
2022-08-21T03:31:32.869Z,649
2022-08-21T03:32:32.680Z,481
2022-08-21T03:33:32.651Z,623
2022-08-21T03:34:32.666Z,485
2022-08-21T03:36:32.877Z,462
2022-08-21T03:37:32.683Z,452
2022-08-21T03:38:32.686Z,569
2022-08-21T03:39:32.645Z,433
2022-08-21T03:41:32.882Z,433
2022-08-21T03:42:32.649Z,450
2022-08-21T03:43:32.682Z,447
2022-08-21T03:44:32.682Z,634
2022-08-21T03:46:32.858Z,438
2022-08-21T03:47:32.567Z,433
2022-08-21T03:48:32.601Z,580
2022-08-21T03:49:32.563Z,615
2022-08-21T03:51:32.886Z,435
2022-08-21T03:52:32.561Z,602
2022-08-21T03:53:32.594Z,599
2022-08-21T03:54:32.701Z,445
2022-08-21T03:56:32.860Z,602
2022-08-21T03:57:32.578Z,445
2022-08-21T03:58:32.589Z,594
2022-08-21T03:59:32.600Z,472
2022-08-21T04:01:32.918Z,445
2022-08-21T04:02:32.603Z,505
2022-08-21T04:03:32.624Z,586
2022-08-21T04:04:32.590Z,427
2022-08-21T04:06:37.287Z,660
2022-08-21T04:07:32.569Z,482
2022-08-21T04:08:32.707Z,612
2022-08-21T04:09:32.575Z,564
2022-08-21T04:11:32.900Z,660
2022-08-21T04:12:32.604Z,672
2022-08-21T04:13:32.698Z,692
2022-08-21T04:14:32.603Z,659
2022-08-21T04:16:32.872Z,672
2022-08-21T04:17:32.580Z,486
2022-08-21T04:18:32.629Z,668
2022-08-21T04:19:32.591Z,660
2022-08-21T04:21:32.874Z,488
2022-08-21T04:22:32.703Z,503
2022-08-21T04:23:32.579Z,678
2022-08-21T04:24:32.621Z,564
2022-08-21T04:26:32.879Z,683
2022-08-21T04:27:32.583Z,666
2022-08-21T04:28:32.730Z,483
2022-08-21T04:29:33.787Z,682
2022-08-21T04:31:32.889Z,659
2022-08-21T04:32:32.712Z,626
2022-08-21T04:33:32.620Z,649
2022-08-21T04:34:32.609Z,614
2022-08-21T04:36:32.925Z,428
2022-08-21T04:37:32.627Z,445
2022-08-21T04:38:33.143Z,650
2022-08-21T04:39:32.617Z,446
2022-08-21T04:41:32.895Z,486
2022-08-21T04:42:32.607Z,578
2022-08-21T04:43:32.596Z,523
2022-08-21T04:44:32.605Z,645
2022-08-21T04:46:32.915Z,506
2022-08-21T04:47:41.616Z,537
2022-08-21T04:48:32.696Z,514
2022-08-21T04:49:32.601Z,653
2022-08-21T04:51:32.887Z,533
2022-08-21T04:52:32.610Z,683
2022-08-21T04:53:32.628Z,652
2022-08-21T04:54:32.656Z,457
2022-08-21T04:56:32.891Z,480
2022-08-21T04:57:34.282Z,620
2022-08-21T04:58:32.615Z,660
2022-08-21T04:59:32.718Z,465
2022-08-21T05:01:32.974Z,400
2022-08-21T05:02:32.716Z,692
2022-08-21T05:03:32.725Z,686
2022-08-21T05:04:32.730Z,520
2022-08-21T05:06:32.905Z,518
2022-08-21T05:07:41.555Z,565
2022-08-21T05:08:32.709Z,486
2022-08-21T05:09:32.646Z,607
2022-08-21T05:11:32.896Z,495
2022-08-21T05:12:32.636Z,465
2022-08-21T05:13:32.609Z,645
2022-08-21T05:14:32.638Z,605
2022-08-21T05:16:37.532Z,620
2022-08-21T05:17:32.720Z,602
2022-08-21T05:18:32.611Z,569
2022-08-21T05:19:32.726Z,451
2022-08-21T05:21:32.929Z,763
2022-08-21T05:22:32.753Z,555
2022-08-21T05:23:32.761Z,793
2022-08-21T05:24:32.741Z,827
2022-08-21T05:26:32.917Z,800
2022-08-21T05:27:32.651Z,844
2022-08-21T05:28:32.632Z,586
2022-08-21T05:31:19.591Z,400
2022-08-21T05:32:19.569Z,566
2022-08-21T05:33:19.582Z,408
2022-08-21T05:35:19.813Z,400
2022-08-21T05:36:19.585Z,556
2022-08-21T05:37:19.569Z,529
2022-08-21T05:38:19.621Z,416
2022-08-21T05:40:22.049Z,631
2022-08-21T05:41:19.568Z,556
2022-08-21T05:42:19.571Z,586
2022-08-21T05:43:19.573Z,439
2022-08-21T05:45:19.820Z,454
2022-08-21T05:46:19.581Z,603
2022-08-21T05:47:19.590Z,603
2022-08-21T05:48:19.576Z,424
2022-08-21T05:50:19.793Z,637
2022-08-21T05:51:19.601Z,605
2022-08-21T05:52:19.613Z,620
2022-08-21T05:53:19.609Z,578
2022-08-21T05:55:19.775Z,597
2022-08-21T05:56:19.601Z,441
2022-08-21T05:57:19.618Z,620
2022-08-21T05:58:19.618Z,627
2022-08-21T06:00:19.800Z,523
2022-08-21T06:01:19.608Z,400
2022-08-21T06:02:19.594Z,577
2022-08-21T06:03:19.589Z,443
2022-08-21T06:05:25.104Z,589
2022-08-21T06:06:19.586Z,702
2022-08-21T06:07:19.611Z,646
2022-08-21T06:08:19.621Z,502
2022-08-21T06:10:19.796Z,671
2022-08-21T06:11:20.857Z,463
2022-08-21T06:12:19.628Z,438
2022-08-21T06:13:19.615Z,620
2022-08-21T06:15:19.762Z,456
2022-08-21T06:16:19.587Z,434
2022-08-21T06:17:19.595Z,588
2022-08-21T06:18:19.590Z,421
2022-08-21T06:20:19.796Z,414
2022-08-21T06:21:19.619Z,427
2022-08-21T06:22:19.601Z,617
2022-08-21T06:23:19.636Z,575
2022-08-21T06:25:19.807Z,592
2022-08-21T06:26:19.635Z,586
2022-08-21T06:27:22.416Z,410
2022-08-21T06:28:19.602Z,414
2022-08-21T06:30:19.792Z,530
2022-08-21T06:31:19.655Z,515
2022-08-21T06:32:19.613Z,519
2022-08-21T06:33:19.625Z,549
2022-08-21T06:35:19.832Z,553
2022-08-21T06:36:19.636Z,400
2022-08-21T06:37:19.622Z,671
2022-08-21T06:38:19.602Z,686
2022-08-21T06:40:19.980Z,638
2022-08-21T06:41:23.978Z,603
2022-08-21T06:42:19.603Z,634
2022-08-21T06:43:19.604Z,461
2022-08-21T06:45:19.806Z,470
2022-08-21T06:46:19.634Z,560
2022-08-21T06:47:19.646Z,615
2022-08-21T06:48:19.721Z,447
2022-08-21T06:50:19.814Z,493
2022-08-21T06:51:19.606Z,694
2022-08-21T06:52:19.625Z,678
2022-08-21T06:53:19.629Z,712
2022-08-21T06:55:21.851Z,704
2022-08-21T06:56:19.616Z,700
2022-08-21T06:57:19.611Z,529
2022-08-21T06:58:19.615Z,531
2022-08-21T07:00:19.795Z,733
2022-08-21T07:01:19.722Z,688
2022-08-21T07:02:19.636Z,679
2022-08-21T07:03:19.647Z,688
2022-08-21T07:05:19.826Z,744
2022-08-21T07:06:19.646Z,737
2022-08-21T07:07:19.625Z,699
2022-08-21T07:08:19.647Z,704
2022-08-21T07:10:22.105Z,710
2022-08-21T07:11:19.633Z,671
2022-08-21T07:12:19.626Z,700
2022-08-21T07:13:19.640Z,675
2022-08-21T07:15:19.816Z,656
2022-08-21T07:16:19.646Z,627
2022-08-21T07:17:19.661Z,633
2022-08-21T07:18:19.728Z,400
2022-08-21T07:20:19.830Z,475
2022-08-21T07:21:22.717Z,650
2022-08-21T07:22:19.633Z,665
2022-08-21T07:23:19.638Z,620
2022-08-21T07:25:19.834Z,637
2022-08-21T07:26:19.659Z,656
2022-08-21T07:27:19.674Z,650
2022-08-21T07:28:19.629Z,607
2022-08-21T07:30:19.808Z,626
2022-08-21T07:31:19.676Z,629
2022-08-21T07:32:21.346Z,540
2022-08-21T07:33:19.665Z,574
2022-08-21T07:35:19.875Z,482
2022-08-21T07:36:19.669Z,454
2022-08-21T07:37:19.674Z,638
2022-08-21T07:38:19.663Z,626
2022-08-21T07:40:19.882Z,409
2022-08-21T07:41:19.645Z,690
2022-08-21T07:42:19.643Z,623
2022-08-21T07:43:19.655Z,451
2022-08-21T07:45:19.837Z,518
2022-08-21T07:46:19.668Z,620
2022-08-21T07:47:29.346Z,634
2022-08-21T07:48:19.653Z,617
2022-08-21T07:50:19.845Z,645
2022-08-21T07:51:19.674Z,617
2022-08-21T07:52:19.673Z,623
2022-08-21T07:53:19.648Z,643
2022-08-21T07:55:19.824Z,652
2022-08-21T07:56:19.649Z,605
2022-08-21T07:57:19.680Z,631
2022-08-21T07:58:19.676Z,577
2022-08-21T08:00:19.873Z,470
2022-08-21T08:01:19.694Z,502
2022-08-21T08:02:19.696Z,704
2022-08-21T08:03:20.510Z,485
2022-08-21T08:05:19.861Z,666
2022-08-21T08:06:19.691Z,461
2022-08-21T08:07:19.657Z,414
2022-08-21T08:08:19.681Z,451
2022-08-21T08:10:19.844Z,432
2022-08-21T08:11:19.683Z,485
2022-08-21T08:12:19.693Z,470
2022-08-21T08:13:19.733Z,476
2022-08-21T08:15:19.873Z,570
2022-08-21T08:16:19.655Z,400
2022-08-21T08:17:19.684Z,493
2022-08-21T08:18:19.724Z,406
2022-08-21T08:20:19.871Z,542
2022-08-21T08:21:19.733Z,400
2022-08-21T08:22:19.692Z,575
2022-08-21T08:23:19.688Z,543
2022-08-21T08:25:19.871Z,637
2022-08-21T08:26:19.689Z,457
2022-08-21T08:27:19.672Z,445
2022-08-21T08:28:19.670Z,599
2022-08-21T08:30:19.920Z,589
2022-08-21T08:31:19.700Z,422
2022-08-21T08:32:19.710Z,596
2022-08-21T08:33:19.664Z,572
2022-08-21T08:35:20.139Z,637
2022-08-21T08:36:19.820Z,591
2022-08-21T08:37:19.716Z,597
2022-08-21T08:38:19.689Z,631
2022-08-21T08:40:20.028Z,650
2022-08-21T08:41:19.694Z,626
2022-08-21T08:42:32.542Z,640
2022-08-21T08:43:19.691Z,643
2022-08-21T08:45:19.886Z,715
2022-08-21T08:46:19.675Z,699
2022-08-21T08:47:19.669Z,702
2022-08-21T08:48:19.703Z,728
2022-08-21T08:50:19.898Z,580
2022-08-21T08:51:19.715Z,620
2022-08-21T08:52:19.706Z,679
2022-08-21T08:53:19.680Z,990
2022-08-21T08:55:21.585Z,665
2022-08-21T08:56:19.727Z,634
2022-08-21T08:57:19.689Z,649
2022-08-21T08:58:19.688Z,907
2022-08-21T09:00:19.886Z,923
2022-08-21T09:01:19.782Z,900
2022-08-21T09:02:19.719Z,659
2022-08-21T09:03:19.685Z,682
2022-08-21T09:05:19.888Z,564
2022-08-21T09:06:19.760Z,586
2022-08-21T09:07:19.691Z,882
2022-08-21T09:08:19.705Z,954
2022-08-21T09:10:19.862Z,702
2022-08-21T09:11:19.688Z,915
2022-08-21T09:12:19.713Z,915
2022-08-21T09:13:19.696Z,897
2022-08-21T09:15:19.896Z,897
2022-08-21T09:16:19.698Z,624
2022-08-21T09:17:19.746Z,874
2022-08-21T09:18:19.724Z,885
2022-08-21T09:20:19.870Z,851
2022-08-21T09:21:19.715Z,874
2022-08-21T09:22:19.715Z,603
2022-08-21T09:23:19.719Z,865
2022-08-21T09:25:19.871Z,940
2022-08-21T09:26:19.730Z,902
2022-08-21T09:27:19.729Z,967
2022-08-21T09:28:19.710Z,863
2022-08-21T09:30:19.878Z,1053
2022-08-21T09:31:19.704Z,728
2022-08-21T09:32:19.782Z,757
2022-08-21T09:33:19.737Z,763
2022-08-21T09:35:19.903Z,1125
2022-08-21T09:36:19.744Z,853
2022-08-21T09:37:19.727Z,872
2022-08-21T09:38:19.707Z,1171
2022-08-21T09:40:19.965Z,1277
2022-08-21T09:41:19.741Z,1270
2022-08-21T09:42:19.746Z,907
2022-08-21T09:43:19.709Z,923
2022-08-21T09:45:19.912Z,1035
2022-08-21T09:46:19.746Z,1478
2022-08-21T09:47:21.889Z,983
2022-08-21T09:48:19.711Z,1044
2022-08-21T09:50:19.894Z,1565
2022-08-21T09:51:19.732Z,1538
2022-08-21T09:52:19.748Z,1255
2022-08-21T09:53:19.720Z,1905
2022-08-21T09:55:19.976Z,1397
2022-08-21T09:56:23.344Z,1441
2022-08-21T09:57:19.751Z,1639
2022-08-21T09:58:19.720Z,2445
2022-08-21T10:00:19.895Z,2618
2022-08-21T10:01:19.790Z,2801
2022-08-21T10:02:19.727Z,2905
2022-08-21T10:03:19.750Z,1905
2022-08-21T10:05:19.922Z,2102
2022-08-21T10:06:19.753Z,1815
2022-08-21T10:07:19.726Z,3077
2022-08-21T10:08:19.784Z,1961
2022-08-21T10:10:19.903Z,2220
2022-08-21T10:11:19.748Z,3334
2022-08-21T10:12:19.745Z,3334
2022-08-21T10:13:19.731Z,3394
2022-08-21T10:15:19.928Z,3791
2022-08-21T10:16:19.800Z,3968
2022-08-21T10:17:19.730Z,2603
2022-08-21T10:18:19.726Z,3835
2022-08-21T10:20:19.939Z,4543
2022-08-21T10:21:19.786Z,4402
2022-08-21T10:22:19.739Z,2801
2022-08-21T10:23:19.749Z,3092
2022-08-21T10:25:19.933Z,3618
2022-08-21T10:26:19.761Z,4106
2022-08-21T10:27:19.773Z,6593
2022-08-21T10:28:19.762Z,7031
2022-08-21T10:30:19.919Z,7257
2022-08-21T10:31:19.776Z,5337
2022-08-21T10:32:25.743Z,7985
2022-08-21T10:33:19.761Z,5378
2022-08-21T10:35:19.931Z,7362
2022-08-21T10:36:19.772Z,7490
2022-08-21T10:37:19.765Z,6732
2022-08-21T10:38:39.588Z,4652
2022-08-21T10:40:20.005Z,5856
2022-08-21T10:41:19.773Z,6461
2022-08-21T10:42:19.739Z,5729
2022-08-21T10:43:19.749Z,5946
2022-08-21T10:45:19.922Z,5476
2022-08-21T10:46:19.848Z,3340
2022-08-21T10:47:19.752Z,5079
2022-08-21T10:48:19.749Z,4789
2022-08-21T10:50:19.948Z,2960
2022-08-21T10:51:19.748Z,4483
2022-08-21T10:52:19.750Z,4331
2022-08-21T10:53:19.760Z,3875
2022-08-21T10:55:19.960Z,3440
2022-08-21T10:56:19.749Z,3255
2022-08-21T10:57:24.099Z,3146
2022-08-21T10:58:19.783Z,2056
2022-08-21T11:00:19.957Z,2535
2022-08-21T11:01:19.900Z,2623
2022-08-21T11:02:19.794Z,2392
2022-08-21T11:03:19.760Z,2306
2022-08-21T11:05:19.938Z,1325
2022-08-21T11:06:19.782Z,1522
2022-08-21T11:07:19.832Z,2084
2022-08-21T11:08:19.775Z,1368
2022-08-21T11:10:20.007Z,1855
2022-08-21T11:11:20.038Z,1151
2022-08-21T11:12:19.792Z,1102
2022-08-21T11:13:19.755Z,1054
2022-08-21T11:15:28.863Z,1278
2022-08-21T11:16:19.781Z,788
2022-08-21T11:17:21.935Z,765
2022-08-21T11:18:19.802Z,1030
2022-08-21T11:20:19.977Z,665
2022-08-21T11:21:19.772Z,653
2022-08-21T11:22:19.773Z,886
2022-08-21T11:23:19.806Z,835
2022-08-21T11:25:19.969Z,584
2022-08-21T11:26:19.779Z,826
2022-08-21T11:27:19.767Z,505
2022-08-21T11:28:19.775Z,463
2022-08-21T11:30:19.982Z,602
2022-08-21T11:31:19.792Z,523
2022-08-21T11:32:19.811Z,407
2022-08-21T11:33:19.814Z,400
2022-08-21T11:35:19.982Z,416
2022-08-21T11:36:19.784Z,606
2022-08-21T11:37:19.778Z,578
2022-08-21T11:38:19.784Z,517
2022-08-21T11:40:19.998Z,523
2022-08-21T11:41:19.801Z,581
2022-08-21T12:40:54.721Z,400
2022-08-21T12:42:44.294Z,853
2022-08-21T12:43:44.254Z,1122
2022-08-21T12:44:44.375Z,1316
2022-08-21T12:45:44.388Z,1491
2022-08-21T12:46:44.578Z,1654
2022-08-21T12:47:44.292Z,1248
2022-08-21T12:48:44.265Z,913
2022-08-21T12:49:44.289Z,1474
2022-08-21T12:50:45.337Z,1538
2022-08-21T12:51:44.553Z,1782
2022-08-21T12:52:44.366Z,1004
2022-08-21T12:53:44.407Z,1470
2022-08-21T12:54:44.299Z,1597
2022-08-21T12:55:44.261Z,1597
2022-08-21T12:56:44.551Z,1706
2022-08-21T12:57:44.390Z,1782
2022-08-21T12:58:44.297Z,1825
2022-08-21T12:59:44.310Z,1639
2022-08-21T13:00:44.287Z,2214
2022-08-21T13:01:44.602Z,2466
2022-08-21T13:02:44.301Z,1574
2022-08-21T13:03:44.386Z,1639
2022-08-21T13:04:44.402Z,1735
2022-08-21T13:05:44.297Z,2760
2022-08-21T13:06:44.561Z,2801
2022-08-21T13:07:44.402Z,1608
2022-08-21T13:08:46.778Z,2414
2022-08-21T13:09:44.301Z,2388
2022-08-21T13:10:44.272Z,2501
2022-08-21T13:11:44.564Z,1798
2022-08-21T13:12:44.307Z,2704
2022-08-21T13:13:44.762Z,2829
2022-08-21T13:14:45.193Z,1944
2022-08-21T13:15:47.336Z,2428
2022-08-21T13:16:44.576Z,2970
2022-08-21T13:17:44.410Z,3149
2022-08-21T13:18:44.280Z,3261
2022-08-21T13:19:44.398Z,3365
2022-08-21T13:20:44.433Z,3365
2022-08-21T13:21:44.594Z,4122
2022-08-21T13:22:44.333Z,3553
2022-08-21T13:23:45.093Z,3411
2022-08-21T13:24:44.314Z,3356
2022-08-21T13:25:44.277Z,3268
2022-08-21T13:26:44.574Z,2017
2022-08-21T13:27:44.299Z,3004
2022-08-21T13:28:44.310Z,3618
2022-08-21T13:29:44.398Z,2749
2022-08-21T13:30:44.430Z,1798
2022-08-21T13:31:44.584Z,1900
2022-08-21T13:32:44.322Z,1552
2022-08-21T13:33:44.322Z,1688
2022-08-21T13:34:44.286Z,2388
2022-08-21T13:35:44.295Z,2388
2022-08-21T13:36:44.611Z,2388
2022-08-21T13:37:44.317Z,2162
2022-08-21T13:38:44.327Z,2162
2022-08-21T13:39:44.327Z,2353
2022-08-21T13:40:44.292Z,2189
2022-08-21T13:41:44.575Z,1436
2022-08-21T13:42:44.437Z,1663
2022-08-21T13:43:44.419Z,1717
2022-08-21T13:44:44.320Z,2338
2022-08-21T13:45:44.290Z,1436
2022-08-21T13:46:44.588Z,1717
2022-08-21T13:47:44.299Z,1478
2022-08-21T13:48:44.411Z,2272
2022-08-21T13:49:44.423Z,1584
2022-08-21T13:50:44.415Z,1503
2022-08-21T13:51:44.579Z,2195
2022-08-21T13:52:44.423Z,2466
2022-08-21T13:53:44.431Z,1495
2022-08-21T13:54:44.290Z,1495
2022-08-21T13:55:44.399Z,1517
2022-08-21T13:56:44.597Z,2162
2022-08-21T13:57:44.295Z,2226
2022-08-21T13:58:44.433Z,2170
2022-08-21T13:59:44.331Z,2134
2022-08-21T14:00:44.332Z,1928
2022-08-21T14:01:44.710Z,1728
2022-08-21T14:02:44.306Z,1692
2022-08-21T14:03:44.303Z,1107
2022-08-21T14:04:44.449Z,1291
2022-08-21T14:05:44.431Z,1773
2022-08-21T14:06:44.653Z,1872
2022-08-21T14:07:44.423Z,1086
2022-08-21T14:08:44.433Z,1004
2022-08-21T14:09:44.334Z,1014
2022-08-21T14:10:44.302Z,959
2022-08-21T14:11:44.593Z,1266
2022-08-21T14:12:44.429Z,1393
2022-08-21T14:13:44.306Z,1341
2022-08-21T14:14:44.338Z,1184
2022-08-21T14:15:44.317Z,821
2022-08-21T14:16:44.633Z,700
2022-08-21T14:17:44.429Z,712
2022-08-21T14:18:44.454Z,668
2022-08-21T14:19:44.340Z,933
2022-08-21T14:20:44.356Z,891
2022-08-21T14:21:44.611Z,863
2022-08-21T14:22:44.314Z,483
2022-08-21T14:23:44.437Z,424
2022-08-21T14:24:44.322Z,400
2022-08-21T14:25:44.772Z,400
2022-08-21T14:26:44.616Z,413
2022-08-21T14:27:44.324Z,578
2022-08-21T14:28:44.409Z,624
2022-08-21T14:29:44.443Z,575
2022-08-21T14:30:44.456Z,549
2022-08-21T14:31:44.610Z,551
2022-08-21T14:32:44.968Z,740
2022-08-21T14:33:44.442Z,612
2022-08-21T14:34:44.454Z,591
2022-08-21T14:35:44.358Z,400
2022-08-21T14:36:44.617Z,759
2022-08-21T14:37:44.343Z,694
2022-08-21T14:38:44.331Z,671
2022-08-21T14:39:45.205Z,461
2022-08-21T14:40:44.334Z,442
2022-08-21T14:41:44.814Z,481
2022-08-21T14:42:44.346Z,656
2022-08-21T14:43:44.431Z,455
2022-08-21T14:44:44.448Z,476
2022-08-21T14:45:44.438Z,463
2022-08-21T14:46:54.184Z,481
2022-08-21T14:47:44.439Z,627
2022-08-21T14:48:44.352Z,493
2022-08-21T14:49:44.355Z,459
2022-08-21T14:50:44.357Z,444
2022-08-21T14:51:53.789Z,615
2022-08-21T14:52:44.394Z,411
2022-08-21T14:53:44.458Z,640
2022-08-21T14:54:44.458Z,776
2022-08-21T14:55:44.359Z,735
2022-08-21T14:56:44.656Z,706
2022-08-21T14:57:44.439Z,688
2022-08-21T14:58:44.479Z,668
2022-08-21T14:59:44.457Z,668
2022-08-21T15:00:44.367Z,452
2022-08-21T15:01:44.694Z,634
2022-08-21T15:02:44.456Z,553
2022-08-21T15:03:44.333Z,400
2022-08-21T15:04:44.344Z,444
2022-08-21T15:05:44.426Z,405
2022-08-21T15:06:44.637Z,400
2022-08-21T15:07:44.468Z,623
2022-08-21T15:08:44.491Z,649
2022-08-21T15:09:44.366Z,618
2022-08-21T15:11:08.495Z,629
2022-08-21T15:11:44.635Z,795
2022-08-21T15:12:44.479Z,726
2022-08-21T15:13:44.501Z,497
2022-08-21T15:18:44.356Z,690
2022-08-21T15:19:44.385Z,533
2022-08-21T15:21:44.680Z,717
2022-08-21T15:22:47.598Z,560
2022-08-21T15:23:44.509Z,697
2022-08-21T15:24:44.492Z,607
2022-08-21T15:26:44.662Z,699
2022-08-21T15:27:44.384Z,728
2022-08-21T15:28:44.363Z,754
2022-08-21T15:29:44.374Z,744
2022-08-21T15:31:44.698Z,920
2022-08-21T15:32:44.485Z,1302
2022-08-21T15:33:44.530Z,997
2022-08-21T15:34:44.389Z,1201
2022-08-21T15:36:44.685Z,1110
2022-08-21T15:37:44.485Z,940
2022-08-21T15:38:44.484Z,853
2022-08-21T15:39:47.335Z,868
2022-08-21T15:41:44.655Z,1174
2022-08-21T15:42:44.511Z,1068
2022-08-21T15:43:44.364Z,774
2022-08-21T15:44:44.491Z,800
2022-08-21T15:46:44.665Z,780
2022-08-21T15:47:44.384Z,1035
2022-08-21T15:48:44.492Z,844
2022-08-21T15:49:44.478Z,1198
2022-08-21T15:51:44.654Z,1140
2022-08-21T15:52:44.495Z,1159
2022-08-21T15:53:44.477Z,787
2022-08-21T15:54:44.390Z,1077
2022-08-21T15:56:44.624Z,770
2022-08-21T15:57:44.490Z,813
2022-08-21T15:58:44.395Z,765
2022-08-21T15:59:44.371Z,1367
2022-08-21T16:01:45.282Z,1071
2022-08-21T16:02:44.400Z,1077
2022-08-21T16:03:44.476Z,728
2022-08-21T16:04:44.481Z,1065
2022-08-21T16:06:54.519Z,992
2022-08-21T16:07:44.464Z,1118
2022-08-21T16:08:44.498Z,1107
2022-08-21T16:09:44.400Z,785
2022-08-21T16:11:44.673Z,1147
2022-08-21T16:12:44.385Z,1128
2022-08-21T16:13:44.414Z,1181
2022-08-21T16:14:44.387Z,882
2022-08-21T16:16:44.681Z,1171
2022-08-21T16:17:44.506Z,1171
2022-08-21T16:18:44.412Z,815
2022-08-21T16:19:44.519Z,1090
2022-08-21T16:21:44.701Z,951
2022-08-21T16:22:44.720Z,997
2022-08-21T16:23:44.391Z,1262
2022-08-21T16:24:44.489Z,1416
2022-08-21T16:26:44.714Z,1436
2022-08-21T16:27:44.542Z,1453
2022-08-21T16:28:44.517Z,1220
2022-08-21T16:29:44.420Z,1565
2022-08-21T16:31:44.685Z,1163
2022-08-21T16:32:44.484Z,1683
2022-08-21T16:33:44.506Z,1759
2022-08-21T16:34:44.516Z,1905
2022-08-21T16:36:44.716Z,1697
2022-08-21T16:37:44.518Z,1291
2022-08-21T16:38:44.540Z,1367
2022-08-21T16:39:44.518Z,1916
2022-08-21T16:41:44.679Z,1465
2022-08-21T16:42:44.523Z,2247
2022-08-21T16:43:44.430Z,2394
2022-08-21T16:44:48.505Z,1630
2022-08-21T16:46:44.710Z,1659
2022-08-21T16:47:44.403Z,2306
2022-08-21T16:48:44.508Z,1584
2022-08-21T16:49:44.398Z,1825
2022-08-21T16:51:44.696Z,1805
2022-08-21T16:52:44.396Z,1984
2022-08-21T16:53:44.493Z,2710
2022-08-21T16:54:44.513Z,2170
2022-08-21T16:56:47.695Z,2611
2022-08-21T16:57:44.421Z,3194
2022-08-21T16:58:44.530Z,3268
2022-08-21T16:59:44.529Z,3194
2022-08-21T17:01:44.725Z,2272
2022-08-21T17:02:44.437Z,3305
2022-08-21T17:03:44.445Z,2461
2022-08-21T17:04:44.535Z,2913
2022-08-21T17:06:44.705Z,3305
2022-08-21T17:07:44.410Z,2823
2022-08-21T17:08:44.438Z,3563
2022-08-21T17:09:44.515Z,2717
2022-08-21T17:11:44.703Z,2717
2022-08-21T17:12:44.546Z,3525
2022-08-21T17:13:44.561Z,3824